sensor_id;sensor_type;location;lat;lon;timestamp;P1;durP1;ratioP1;P2;durP2;ratioP2
32451;SDS011;45528;52.102;5.242;2023-04-24T00:00:07;1.7;;;1.4;;
32451;SDS011;45528;52.102;5.242;2023-04-24T00:03:21;1.8;;;1.3;;
32451;SDS011;45528;52.102;5.242;2023-04-24T00:04:58;3.0;;;1.5;;
32451;SDS011;45528;52.102;5.242;2023-04-24T00:06:34;2.5;;;1.4;;
32451;SDS011;45528;52.102;5.242;2023-04-24T00:09:47;1.7;;;0.9;;
32451;SDS011;45528;52.102;5.242;2023-04-24T00:11:25;1.5;;;1.3;;
32451;SDS011;45528;52.102;5.242;2023-04-24T00:13:02;2.9;;;1.0;;
32451;SDS011;45528;52.102;5.242;2023-04-24T00:16:14;1.6;;;1.5;;
32451;SDS011;45528;52.102;5.242;2023-04-24T00:17:50;3.0;;;2.1;;
32451;SDS011;45528;52.102;5.242;2023-04-24T00:19:26;3.1;;;2.4;;
32451;SDS011;45528;52.102;5.242;2023-04-24T00:21:04;3.7;;;2.4;;
32451;SDS011;45528;52.102;5.242;2023-04-24T00:24:17;3.6;;;2.5;;
32451;SDS011;45528;52.102;5.242;2023-04-24T00:25:54;5.5;;;2.5;;
32451;SDS011;45528;52.102;5.242;2023-04-24T00:27:30;3.3;;;2.8;;
32451;SDS011;45528;52.102;5.242;2023-04-24T00:30:44;3.7;;;2.31;;
32451;SDS011;45528;52.102;5.242;2023-04-24T00:32:20;3.3;;;2.21;;
32451;SDS011;45528;52.102;5.242;2023-04-24T00:33:57;3.7;;;2.6;;
32451;SDS011;45528;52.102;5.242;2023-04-24T00:37:10;3.6;;;2.4;;
32451;SDS011;45528;52.102;5.242;2023-04-24T00:38:46;2.5;;;2.31;;
32451;SDS011;45528;52.102;5.242;2023-04-24T00:40:22;4.0;;;2.5;;
32451;SDS011;45528;52.102;5.242;2023-04-24T00:41:58;3.1;;;2.5;;
32451;SDS011;45528;52.102;5.242;2023-04-24T00:45:12;4.2;;;2.4;;
32451;SDS011;45528;52.102;5.242;2023-04-24T00:46:49;4.1;;;2.9;;
32451;SDS011;45528;52.102;5.242;2023-04-24T00:48:26;3.1;;;2.8;;
32451;SDS011;45528;52.102;5.242;2023-04-24T00:51:42;4.2;;;2.9;;
32451;SDS011;45528;52.102;5.242;2023-04-24T00:53:18;4.2;;;3.2;;
32451;SDS011;45528;52.102;5.242;2023-04-24T00:54:55;3.8;;;3.2;;
32451;SDS011;45528;52.102;5.242;2023-04-24T00:58:10;4.3;;;3.2;;
32451;SDS011;45528;52.102;5.242;2023-04-24T00:59:47;3.9;;;3.4;;
32451;SDS011;45528;52.102;5.242;2023-04-24T01:01:23;4.5;;;3.5;;
32451;SDS011;45528;52.102;5.242;2023-04-24T01:03:00;4.2;;;3.5;;
32451;SDS011;45528;52.102;5.242;2023-04-24T01:06:18;7.6;;;4.41;;
32451;SDS011;45528;52.102;5.242;2023-04-24T01:07:56;5.3;;;4.5;;
32451;SDS011;45528;52.102;5.242;2023-04-24T01:09:33;7.4;;;4.91;;
32451;SDS011;45528;52.102;5.242;2023-04-24T01:12:47;8.2;;;5.11;;
32451;SDS011;45528;52.102;5.242;2023-04-24T01:14:23;6.2;;;5.11;;
32451;SDS011;45528;52.102;5.242;2023-04-24T01:16:00;7.9;;;5.5;;
32451;SDS011;45528;52.102;5.242;2023-04-24T01:17:39;7.4;;;5.0;;
32451;SDS011;45528;52.102;5.242;2023-04-24T01:20:59;7.2;;;5.11;;
32451;SDS011;45528;52.102;5.242;2023-04-24T01:22:39;7.3;;;6.0;;
32451;SDS011;45528;52.102;5.242;2023-04-24T01:24:16;7.8;;;5.7;;
32451;SDS011;45528;52.102;5.242;2023-04-24T01:27:31;8.5;;;5.9;;
32451;SDS011;45528;52.102;5.242;2023-04-24T01:29:08;7.0;;;5.2;;
32451;SDS011;45528;52.102;5.242;2023-04-24T01:30:45;7.5;;;6.3;;
32451;SDS011;45528;52.102;5.242;2023-04-24T01:32:22;9.21;;;6.4;;
32451;SDS011;45528;52.102;5.242;2023-04-24T01:35:35;8.6;;;6.1;;
32451;SDS011;45528;52.102;5.242;2023-04-24T01:37:12;6.5;;;5.3;;
32451;SDS011;45528;52.102;5.242;2023-04-24T01:38:50;7.6;;;5.8;;
32451;SDS011;45528;52.102;5.242;2023-04-24T01:42:04;9.9;;;6.1;;
32451;SDS011;45528;52.102;5.242;2023-04-24T01:43:41;7.4;;;5.6;;
32451;SDS011;45528;52.102;5.242;2023-04-24T01:45:18;7.3;;;5.0;;
32451;SDS011;45528;52.102;5.242;2023-04-24T01:46:55;8.0;;;5.0;;
32451;SDS011;45528;52.102;5.242;2023-04-24T01:50:10;7.3;;;5.11;;
32451;SDS011;45528;52.102;5.242;2023-04-24T01:51:47;6.9;;;5.5;;
32451;SDS011;45528;52.102;5.242;2023-04-24T01:53:24;9.1;;;4.91;;
32451;SDS011;45528;52.102;5.242;2023-04-24T01:56:40;7.5;;;5.4;;
32451;SDS011;45528;52.102;5.242;2023-04-24T01:58:18;7.8;;;5.2;;
32451;SDS011;45528;52.102;5.242;2023-04-24T01:59:56;8.1;;;5.8;;
32451;SDS011;45528;52.102;5.242;2023-04-24T02:01:33;5.0;;;4.5;;
32451;SDS011;45528;52.102;5.242;2023-04-24T02:04:47;7.9;;;4.8;;
32451;SDS011;45528;52.102;5.242;2023-04-24T02:06:23;7.2;;;5.4;;
32451;SDS011;45528;52.102;5.242;2023-04-24T02:07:59;6.0;;;4.3;;
32451;SDS011;45528;52.102;5.242;2023-04-24T02:11:13;6.7;;;4.61;;
32451;SDS011;45528;52.102;5.242;2023-04-24T02:12:49;5.6;;;4.2;;
32451;SDS011;45528;52.102;5.242;2023-04-24T02:14:26;4.3;;;3.8;;
32451;SDS011;45528;52.102;5.242;2023-04-24T02:17:38;4.61;;;3.5;;
32451;SDS011;45528;52.102;5.242;2023-04-24T02:19:15;5.7;;;3.2;;
32451;SDS011;45528;52.102;5.242;2023-04-24T02:20:51;6.5;;;3.0;;
32451;SDS011;45528;52.102;5.242;2023-04-24T02:22:29;5.2;;;3.7;;
32451;SDS011;45528;52.102;5.242;2023-04-24T02:25:42;7.7;;;3.8;;
32451;SDS011;45528;52.102;5.242;2023-04-24T02:27:18;5.5;;;3.6;;
32451;SDS011;45528;52.102;5.242;2023-04-24T02:28:55;4.5;;;3.5;;
32451;SDS011;45528;52.102;5.242;2023-04-24T02:32:09;5.11;;;3.9;;
32451;SDS011;45528;52.102;5.242;2023-04-24T02:33:45;5.2;;;3.7;;
32451;SDS011;45528;52.102;5.242;2023-04-24T02:35:21;5.5;;;4.0;;
32451;SDS011;45528;52.102;5.242;2023-04-24T02:38:35;6.0;;;3.7;;
32451;SDS011;45528;52.102;5.242;2023-04-24T02:40:11;5.6;;;4.1;;
32451;SDS011;45528;52.102;5.242;2023-04-24T02:41:48;5.8;;;4.2;;
32451;SDS011;45528;52.102;5.242;2023-04-24T02:43:24;5.4;;;4.3;;
32451;SDS011;45528;52.102;5.242;2023-04-24T02:46:39;6.5;;;4.8;;
32451;SDS011;45528;52.102;5.242;2023-04-24T02:48:16;6.1;;;4.7;;
32451;SDS011;45528;52.102;5.242;2023-04-24T02:49:52;7.9;;;5.11;;
32451;SDS011;45528;52.102;5.242;2023-04-24T02:53:05;7.0;;;4.91;;
32451;SDS011;45528;52.102;5.242;2023-04-24T02:54:43;7.7;;;4.91;;
32451;SDS011;45528;52.102;5.242;2023-04-24T02:56:19;6.9;;;4.91;;
32451;SDS011;45528;52.102;5.242;2023-04-24T02:57:56;6.7;;;4.2;;
32451;SDS011;45528;52.102;5.242;2023-04-24T03:01:08;6.5;;;4.8;;
32451;SDS011;45528;52.102;5.242;2023-04-24T03:02:45;7.3;;;4.5;;
32451;SDS011;45528;52.102;5.242;2023-04-24T03:04:22;5.6;;;4.3;;
32451;SDS011;45528;52.102;5.242;2023-04-24T03:07:35;6.0;;;4.3;;
32451;SDS011;45528;52.102;5.242;2023-04-24T03:09:12;5.9;;;4.5;;
32451;SDS011;45528;52.102;5.242;2023-04-24T03:10:49;7.2;;;4.91;;
32451;SDS011;45528;52.102;5.242;2023-04-24T03:14:02;6.6;;;4.8;;
32451;SDS011;45528;52.102;5.242;2023-04-24T03:15:39;7.8;;;5.2;;
32451;SDS011;45528;52.102;5.242;2023-04-24T03:17:16;8.81;;;6.2;;
32451;SDS011;45528;52.102;5.242;2023-04-24T03:18:53;8.2;;;5.6;;
32451;SDS011;45528;52.102;5.242;2023-04-24T03:22:07;9.4;;;5.7;;
32451;SDS011;45528;52.102;5.242;2023-04-24T03:23:44;9.0;;;5.9;;
32451;SDS011;45528;52.102;5.242;2023-04-24T03:25:20;9.0;;;5.9;;
32451;SDS011;45528;52.102;5.242;2023-04-24T03:28:34;8.4;;;4.8;;
32451;SDS011;45528;52.102;5.242;2023-04-24T03:30:12;6.7;;;4.5;;
32451;SDS011;45528;52.102;5.242;2023-04-24T03:31:49;5.8;;;4.41;;
32451;SDS011;45528;52.102;5.242;2023-04-24T03:35:02;6.1;;;4.7;;
32451;SDS011;45528;52.102;5.242;2023-04-24T03:36:39;6.3;;;4.8;;
32451;SDS011;45528;52.102;5.242;2023-04-24T03:38:15;6.5;;;4.91;;
32451;SDS011;45528;52.102;5.242;2023-04-24T03:39:51;8.81;;;5.7;;
32451;SDS011;45528;52.102;5.242;2023-04-24T03:43:05;8.2;;;5.2;;
32451;SDS011;45528;52.102;5.242;2023-04-24T03:44:41;9.0;;;5.7;;
32451;SDS011;45528;52.102;5.242;2023-04-24T03:46:18;7.8;;;5.4;;
32451;SDS011;45528;52.102;5.242;2023-04-24T03:49:32;7.6;;;5.0;;
32451;SDS011;45528;52.102;5.242;2023-04-24T03:51:08;7.8;;;5.5;;
32451;SDS011;45528;52.102;5.242;2023-04-24T03:52:45;8.4;;;5.2;;
32451;SDS011;45528;52.102;5.242;2023-04-24T03:55:59;8.4;;;5.11;;
32451;SDS011;45528;52.102;5.242;2023-04-24T03:57:35;8.0;;;5.4;;
32451;SDS011;45528;52.102;5.242;2023-04-24T03:59:12;9.21;;;5.9;;
32451;SDS011;45528;52.102;5.242;2023-04-24T04:00:48;9.21;;;5.9;;
32451;SDS011;45528;52.102;5.242;2023-04-24T04:04:01;8.81;;;6.2;;
32451;SDS011;45528;52.102;5.242;2023-04-24T04:05:37;8.71;;;5.9;;
32451;SDS011;45528;52.102;5.242;2023-04-24T04:07:15;7.9;;;5.2;;
32451;SDS011;45528;52.102;5.242;2023-04-24T04:10:29;9.21;;;5.7;;
32451;SDS011;45528;52.102;5.242;2023-04-24T04:12:06;9.0;;;5.5;;
32451;SDS011;45528;52.102;5.242;2023-04-24T04:13:43;8.31;;;5.2;;
32451;SDS011;45528;52.102;5.242;2023-04-24T04:15:20;8.31;;;5.0;;
32451;SDS011;45528;52.102;5.242;2023-04-24T04:18:34;7.1;;;4.61;;
32451;SDS011;45528;52.102;5.242;2023-04-24T04:20:11;8.0;;;5.4;;
32451;SDS011;45528;52.102;5.242;2023-04-24T04:21:47;9.31;;;5.3;;
32451;SDS011;45528;52.102;5.242;2023-04-24T04:24:59;9.6;;;5.11;;
32451;SDS011;45528;52.102;5.242;2023-04-24T04:26:36;10.6;;;5.9;;
32451;SDS011;45528;52.102;5.242;2023-04-24T04:28:14;7.7;;;5.3;;
32451;SDS011;45528;52.102;5.242;2023-04-24T04:31:27;9.21;;;6.1;;
32451;SDS011;45528;52.102;5.242;2023-04-24T04:33:03;9.9;;;5.7;;
32451;SDS011;45528;52.102;5.242;2023-04-24T04:34:39;9.9;;;6.0;;
32451;SDS011;45528;52.102;5.242;2023-04-24T04:37:51;11.7;;;5.4;;
32451;SDS011;45528;52.102;5.242;2023-04-24T04:39:27;8.71;;;5.3;;
32451;SDS011;45528;52.102;5.242;2023-04-24T04:41:03;9.5;;;5.8;;
32451;SDS011;45528;52.102;5.242;2023-04-24T04:42:40;8.1;;;5.3;;
32451;SDS011;45528;52.102;5.242;2023-04-24T04:45:52;9.0;;;6.3;;
32451;SDS011;45528;52.102;5.242;2023-04-24T04:47:28;8.0;;;5.3;;
32451;SDS011;45528;52.102;5.242;2023-04-24T04:49:04;8.5;;;5.9;;
32451;SDS011;45528;52.102;5.242;2023-04-24T04:52:16;10.3;;;5.9;;
32451;SDS011;45528;52.102;5.242;2023-04-24T04:53:52;10.3;;;6.1;;
32451;SDS011;45528;52.102;5.242;2023-04-24T04:55:30;13.4;;;7.0;;
32451;SDS011;45528;52.102;5.242;2023-04-24T04:58:42;12.5;;;7.2;;
32451;SDS011;45528;52.102;5.242;2023-04-24T05:00:18;11.0;;;6.4;;
32451;SDS011;45528;52.102;5.242;2023-04-24T05:01:55;10.8;;;6.5;;
32451;SDS011;45528;52.102;5.242;2023-04-24T05:03:31;12.0;;;6.5;;
32451;SDS011;45528;52.102;5.242;2023-04-24T05:06:44;13.9;;;7.8;;
32451;SDS011;45528;52.102;5.242;2023-04-24T05:08:20;13.7;;;7.3;;
32451;SDS011;45528;52.102;5.242;2023-04-24T05:09:57;11.6;;;7.3;;
32451;SDS011;45528;52.102;5.242;2023-04-24T05:13:09;14.4;;;7.6;;
32451;SDS011;45528;52.102;5.242;2023-04-24T05:14:45;13.4;;;7.6;;
32451;SDS011;45528;52.102;5.242;2023-04-24T05:16:21;10.0;;;6.5;;
32451;SDS011;45528;52.102;5.242;2023-04-24T05:19:34;10.0;;;6.5;;
32451;SDS011;45528;52.102;5.242;2023-04-24T05:21:10;11.1;;;6.3;;
32451;SDS011;45528;52.102;5.242;2023-04-24T05:22:46;10.7;;;6.4;;
32451;SDS011;45528;52.102;5.242;2023-04-24T05:24:23;10.3;;;6.2;;
32451;SDS011;45528;52.102;5.242;2023-04-24T05:27:35;9.0;;;5.7;;
32451;SDS011;45528;52.102;5.242;2023-04-24T05:29:12;9.0;;;5.7;;
32451;SDS011;45528;52.102;5.242;2023-04-24T05:30:48;9.4;;;4.91;;
32451;SDS011;45528;52.102;5.242;2023-04-24T05:34:00;7.0;;;4.5;;
32451;SDS011;45528;52.102;5.242;2023-04-24T05:35:37;6.6;;;4.3;;
32451;SDS011;45528;52.102;5.242;2023-04-24T05:37:13;6.9;;;3.8;;
32451;SDS011;45528;52.102;5.242;2023-04-24T05:40:25;4.5;;;2.9;;
32451;SDS011;45528;52.102;5.242;2023-04-24T05:42:01;5.6;;;3.1;;
32451;SDS011;45528;52.102;5.242;2023-04-24T05:43:38;3.5;;;2.4;;
32451;SDS011;45528;52.102;5.242;2023-04-24T05:46:50;5.4;;;2.6;;
32451;SDS011;45528;52.102;5.242;2023-04-24T05:48:27;4.41;;;2.1;;
32451;SDS011;45528;52.102;5.242;2023-04-24T05:50:03;6.5;;;2.31;;
32451;SDS011;45528;52.102;5.242;2023-04-24T05:51:41;4.0;;;1.8;;
32451;SDS011;45528;52.102;5.242;2023-04-24T05:54:53;3.0;;;1.9;;
32451;SDS011;45528;52.102;5.242;2023-04-24T05:56:29;3.2;;;1.7;;
32451;SDS011;45528;52.102;5.242;2023-04-24T05:58:06;4.61;;;1.8;;
32451;SDS011;45528;52.102;5.242;2023-04-24T06:01:18;4.61;;;1.8;;
32451;SDS011;45528;52.102;5.242;2023-04-24T06:02:55;3.0;;;1.4;;
32451;SDS011;45528;52.102;5.242;2023-04-24T06:04:31;3.0;;;1.11;;
32451;SDS011;45528;52.102;5.242;2023-04-24T06:07:44;3.3;;;1.4;;
32451;SDS011;45528;52.102;5.242;2023-04-24T06:09:20;3.0;;;1.3;;
32451;SDS011;45528;52.102;5.242;2023-04-24T06:10:56;4.5;;;1.4;;
32451;SDS011;45528;52.102;5.242;2023-04-24T06:12:32;3.2;;;1.3;;
32451;SDS011;45528;52.102;5.242;2023-04-24T06:15:45;4.3;;;1.4;;
32451;SDS011;45528;52.102;5.242;2023-04-24T06:17:21;2.1;;;1.2;;
32451;SDS011;45528;52.102;5.242;2023-04-24T06:18:57;1.5;;;1.0;;
32451;SDS011;45528;52.102;5.242;2023-04-24T06:22:09;1.7;;;1.11;;
32451;SDS011;45528;52.102;5.242;2023-04-24T06:23:45;5.5;;;1.5;;
32451;SDS011;45528;52.102;5.242;2023-04-24T06:25:21;5.5;;;1.5;;
32451;SDS011;45528;52.102;5.242;2023-04-24T06:28:37;2.9;;;1.7;;
32451;SDS011;45528;52.102;5.242;2023-04-24T06:30:13;4.7;;;2.1;;
32451;SDS011;45528;52.102;5.242;2023-04-24T06:31:50;6.5;;;2.9;;
32451;SDS011;45528;52.102;5.242;2023-04-24T06:33:26;8.71;;;4.8;;
32451;SDS011;45528;52.102;5.242;2023-04-24T06:36:39;11.5;;;6.7;;
32451;SDS011;45528;52.102;5.242;2023-04-24T06:38:15;15.5;;;8.0;;
32451;SDS011;45528;52.102;5.242;2023-04-24T06:39:52;15.2;;;8.9;;
32451;SDS011;45528;52.102;5.242;2023-04-24T06:43:04;17.5;;;9.9;;
32451;SDS011;45528;52.102;5.242;2023-04-24T06:44:40;16.7;;;10.5;;
32451;SDS011;45528;52.102;5.242;2023-04-24T06:46:16;18.8;;;11.4;;
32451;SDS011;45528;52.102;5.242;2023-04-24T06:49:28;28.4;;;12.2;;
32451;SDS011;45528;52.102;5.242;2023-04-24T06:51:04;21.7;;;12.4;;
32451;SDS011;45528;52.102;5.242;2023-04-24T06:52:41;22.3;;;12.6;;
32451;SDS011;45528;52.102;5.242;2023-04-24T06:55:53;20.5;;;12.3;;
32451;SDS011;45528;52.102;5.242;2023-04-24T06:57:29;27.8;;;14.1;;
32451;SDS011;45528;52.102;5.242;2023-04-24T06:59:06;23.0;;;13.5;;
32451;SDS011;45528;52.102;5.242;2023-04-24T07:00:42;24.2;;;13.3;;
32451;SDS011;45528;52.102;5.242;2023-04-24T07:03:54;23.3;;;13.2;;
32451;SDS011;45528;52.102;5.242;2023-04-24T07:05:31;21.3;;;13.7;;
32451;SDS011;45528;52.102;5.242;2023-04-24T07:07:07;24.7;;;13.9;;
32451;SDS011;45528;52.102;5.242;2023-04-24T07:10:19;22.9;;;12.7;;
32451;SDS011;45528;52.102;5.242;2023-04-24T07:11:55;27.8;;;12.3;;
32451;SDS011;45528;52.102;5.242;2023-04-24T07:13:31;22.0;;;12.4;;
32451;SDS011;45528;52.102;5.242;2023-04-24T07:16:44;29.8;;;12.7;;
32451;SDS011;45528;52.102;5.242;2023-04-24T07:18:22;23.1;;;12.7;;
32451;SDS011;45528;52.102;5.242;2023-04-24T07:19:58;28.2;;;12.3;;
32451;SDS011;45528;52.102;5.242;2023-04-24T07:21:34;23.4;;;11.8;;
32451;SDS011;45528;52.102;5.242;2023-04-24T07:24:46;25.8;;;12.0;;
32451;SDS011;45528;52.102;5.242;2023-04-24T07:26:22;26.7;;;12.3;;
32451;SDS011;45528;52.102;5.242;2023-04-24T07:27:59;19.7;;;11.9;;
32451;SDS011;45528;52.102;5.242;2023-04-24T07:31:12;26.4;;;12.9;;
32451;SDS011;45528;52.102;5.242;2023-04-24T07:32:49;25.8;;;12.1;;
32451;SDS011;45528;52.102;5.242;2023-04-24T07:34:25;24.6;;;12.6;;
32451;SDS011;45528;52.102;5.242;2023-04-24T07:37:37;23.3;;;12.1;;
32451;SDS011;45528;52.102;5.242;2023-04-24T07:39:14;22.1;;;11.6;;
32451;SDS011;45528;52.102;5.242;2023-04-24T07:40:50;28.1;;;12.2;;
32451;SDS011;45528;52.102;5.242;2023-04-24T07:42:28;25.6;;;11.6;;
32451;SDS011;45528;52.102;5.242;2023-04-24T07:45:40;27.9;;;12.2;;
32451;SDS011;45528;52.102;5.242;2023-04-24T07:47:16;27.3;;;11.9;;
32451;SDS011;45528;52.102;5.242;2023-04-24T07:48:52;27.2;;;12.3;;
32451;SDS011;45528;52.102;5.242;2023-04-24T07:52:05;23.7;;;10.1;;
32451;SDS011;45528;52.102;5.242;2023-04-24T07:53:42;24.2;;;10.1;;
32451;SDS011;45528;52.102;5.242;2023-04-24T07:55:19;26.0;;;10.0;;
32451;SDS011;45528;52.102;5.242;2023-04-24T07:58:32;29.8;;;9.31;;
32451;SDS011;45528;52.102;5.242;2023-04-24T08:00:08;28.4;;;9.1;;
32451;SDS011;45528;52.102;5.242;2023-04-24T08:01:45;30.1;;;8.71;;
32451;SDS011;45528;52.102;5.242;2023-04-24T08:04:57;30.7;;;8.6;;
32451;SDS011;45528;52.102;5.242;2023-04-24T08:06:34;29.8;;;8.4;;
32451;SDS011;45528;52.102;5.242;2023-04-24T08:08:10;24.7;;;8.1;;
32451;SDS011;45528;52.102;5.242;2023-04-24T08:09:46;26.9;;;8.1;;
32451;SDS011;45528;52.102;5.242;2023-04-24T08:12:59;28.1;;;7.1;;
32451;SDS011;45528;52.102;5.242;2023-04-24T08:14:35;21.2;;;6.4;;
32451;SDS011;45528;52.102;5.242;2023-04-24T08:16:11;26.2;;;6.2;;
32451;SDS011;45528;52.102;5.242;2023-04-24T08:19:24;23.9;;;6.0;;
32451;SDS011;45528;52.102;5.242;2023-04-24T08:21:00;20.9;;;5.6;;
32451;SDS011;45528;52.102;5.242;2023-04-24T08:22:36;20.7;;;5.7;;
32451;SDS011;45528;52.102;5.242;2023-04-24T08:25:48;20.7;;;4.8;;
32451;SDS011;45528;52.102;5.242;2023-04-24T08:27:25;19.7;;;4.7;;
32451;SDS011;45528;52.102;5.242;2023-04-24T08:29:01;21.4;;;4.7;;
32451;SDS011;45528;52.102;5.242;2023-04-24T08:30:38;23.7;;;4.91;;
32451;SDS011;45528;52.102;5.242;2023-04-24T08:33:51;27.1;;;5.0;;
32451;SDS011;45528;52.102;5.242;2023-04-24T08:35:27;23.9;;;5.2;;
32451;SDS011;45528;52.102;5.242;2023-04-24T08:37:03;18.8;;;4.3;;
32451;SDS011;45528;52.102;5.242;2023-04-24T08:40:16;23.6;;;4.0;;
32451;SDS011;45528;52.102;5.242;2023-04-24T08:41:52;17.8;;;3.6;;
32451;SDS011;45528;52.102;5.242;2023-04-24T08:43:29;15.0;;;3.2;;
32451;SDS011;45528;52.102;5.242;2023-04-24T08:46:47;16.2;;;3.1;;
32451;SDS011;45528;52.102;5.242;2023-04-24T08:48:24;15.9;;;3.2;;
32451;SDS011;45528;52.102;5.242;2023-04-24T08:50:02;14.2;;;2.9;;
32451;SDS011;45528;52.102;5.242;2023-04-24T08:51:38;16.4;;;3.3;;
32451;SDS011;45528;52.102;5.242;2023-04-24T08:54:53;15.9;;;2.9;;
32451;SDS011;45528;52.102;5.242;2023-04-24T08:56:30;10.9;;;2.7;;
32451;SDS011;45528;52.102;5.242;2023-04-24T08:58:10;17.3;;;2.9;;
32451;SDS011;45528;52.102;5.242;2023-04-24T09:01:22;15.0;;;3.3;;
32451;SDS011;45528;52.102;5.242;2023-04-24T09:03:01;14.4;;;3.0;;
32451;SDS011;45528;52.102;5.242;2023-04-24T09:04:40;13.9;;;3.5;;
32451;SDS011;45528;52.102;5.242;2023-04-24T09:06:18;18.2;;;3.3;;
32451;SDS011;45528;52.102;5.242;2023-04-24T09:09:37;15.3;;;3.2;;
32451;SDS011;45528;52.102;5.242;2023-04-24T09:11:15;14.8;;;2.7;;
32451;SDS011;45528;52.102;5.242;2023-04-24T09:12:52;13.1;;;2.9;;
32451;SDS011;45528;52.102;5.242;2023-04-24T09:16:06;14.3;;;2.8;;
32451;SDS011;45528;52.102;5.242;2023-04-24T09:17:43;13.9;;;3.1;;
32451;SDS011;45528;52.102;5.242;2023-04-24T09:19:19;15.5;;;3.1;;
32451;SDS011;45528;52.102;5.242;2023-04-24T09:20:57;15.4;;;3.1;;
32451;SDS011;45528;52.102;5.242;2023-04-24T09:24:14;11.2;;;2.7;;
32451;SDS011;45528;52.102;5.242;2023-04-24T09:25:53;11.6;;;2.7;;
32451;SDS011;45528;52.102;5.242;2023-04-24T09:27:31;12.8;;;2.5;;
32451;SDS011;45528;52.102;5.242;2023-04-24T09:30:54;16.0;;;2.8;;
32451;SDS011;45528;52.102;5.242;2023-04-24T09:32:38;13.4;;;2.9;;
32451;SDS011;45528;52.102;5.242;2023-04-24T09:34:18;12.2;;;2.5;;
32451;SDS011;45528;52.102;5.242;2023-04-24T09:35:57;15.3;;;2.8;;
32451;SDS011;45528;52.102;5.242;2023-04-24T09:37:35;11.1;;;2.7;;
32451;SDS011;45528;52.102;5.242;2023-04-24T09:40:51;12.8;;;2.4;;
32451;SDS011;45528;52.102;5.242;2023-04-24T09:42:28;12.8;;;2.4;;
32451;SDS011;45528;52.102;5.242;2023-04-24T09:44:11;9.6;;;2.5;;
32451;SDS011;45528;52.102;5.242;2023-04-24T09:47:24;13.7;;;2.7;;
32451;SDS011;45528;52.102;5.242;2023-04-24T09:49:07;12.2;;;2.21;;
32451;SDS011;45528;52.102;5.242;2023-04-24T09:50:45;11.9;;;2.1;;
32451;SDS011;45528;52.102;5.242;2023-04-24T09:52:22;8.71;;;2.21;;
32451;SDS011;45528;52.102;5.242;2023-04-24T09:55:36;8.2;;;1.9;;
32451;SDS011;45528;52.102;5.242;2023-04-24T09:57:15;8.5;;;1.9;;
32451;SDS011;45528;52.102;5.242;2023-04-24T09:58:51;7.6;;;2.1;;
32451;SDS011;45528;52.102;5.242;2023-04-24T10:02:15;10.4;;;2.31;;
32451;SDS011;45528;52.102;5.242;2023-04-24T10:03:53;7.5;;;1.9;;
32451;SDS011;45528;52.102;5.242;2023-04-24T10:05:29;11.1;;;2.21;;
32451;SDS011;45528;52.102;5.242;2023-04-24T10:07:07;9.6;;;1.9;;
32451;SDS011;45528;52.102;5.242;2023-04-24T10:10:20;7.8;;;1.7;;
32451;SDS011;45528;52.102;5.242;2023-04-24T10:11:57;7.4;;;1.8;;
32451;SDS011;45528;52.102;5.242;2023-04-24T10:13:35;10.5;;;1.8;;
32451;SDS011;45528;52.102;5.242;2023-04-24T10:15:11;9.6;;;1.8;;
32451;SDS011;45528;52.102;5.242;2023-04-24T10:18:28;12.6;;;1.8;;
32451;SDS011;45528;52.102;5.242;2023-04-24T10:20:06;7.6;;;1.8;;
32451;SDS011;45528;52.102;5.242;2023-04-24T10:21:43;8.0;;;1.3;;
32451;SDS011;45528;52.102;5.242;2023-04-24T10:24:57;5.5;;;1.2;;
32451;SDS011;45528;52.102;5.242;2023-04-24T10:26:35;6.4;;;1.4;;
32451;SDS011;45528;52.102;5.242;2023-04-24T10:28:11;7.5;;;1.2;;
32451;SDS011;45528;52.102;5.242;2023-04-24T10:31:30;5.9;;;1.0;;
32451;SDS011;45528;52.102;5.242;2023-04-24T10:33:07;3.6;;;0.9;;
32451;SDS011;45528;52.102;5.242;2023-04-24T10:34:44;2.9;;;0.8;;
32451;SDS011;45528;52.102;5.242;2023-04-24T10:36:21;5.4;;;1.0;;
32451;SDS011;45528;52.102;5.242;2023-04-24T10:39:41;5.4;;;1.0;;
32451;SDS011;45528;52.102;5.242;2023-04-24T10:41:17;3.0;;;1.0;;
32451;SDS011;45528;52.102;5.242;2023-04-24T10:42:54;4.0;;;1.0;;
32451;SDS011;45528;52.102;5.242;2023-04-24T10:44:35;4.7;;;1.11;;
32451;SDS011;45528;52.102;5.242;2023-04-24T10:47:57;3.5;;;0.9;;
32451;SDS011;45528;52.102;5.242;2023-04-24T10:49:34;5.2;;;1.0;;
32451;SDS011;45528;52.102;5.242;2023-04-24T10:51:12;5.0;;;1.11;;
32451;SDS011;45528;52.102;5.242;2023-04-24T10:54:26;6.1;;;1.0;;
32451;SDS011;45528;52.102;5.242;2023-04-24T10:56:04;5.8;;;1.0;;
32451;SDS011;45528;52.102;5.242;2023-04-24T10:58:00;3.8;;;0.9;;
32451;SDS011;45528;52.102;5.242;2023-04-24T10:59:38;4.91;;;1.0;;
32451;SDS011;45528;52.102;5.242;2023-04-24T11:01:30;6.3;;;1.0;;
32451;SDS011;45528;52.102;5.242;2023-04-24T11:05:02;5.8;;;0.8;;
32451;SDS011;45528;52.102;5.242;2023-04-24T11:06:39;4.61;;;0.9;;
32451;SDS011;45528;52.102;5.242;2023-04-24T11:08:21;4.8;;;1.0;;
32451;SDS011;45528;52.102;5.242;2023-04-24T11:10:00;7.0;;;0.9;;
32451;SDS011;45528;52.102;5.242;2023-04-24T11:13:15;4.3;;;0.8;;
32451;SDS011;45528;52.102;5.242;2023-04-24T11:14:59;6.4;;;1.0;;
32451;SDS011;45528;52.102;5.242;2023-04-24T11:16:39;7.5;;;1.11;;
32451;SDS011;45528;52.102;5.242;2023-04-24T11:18:36;6.6;;;1.11;;
32451;SDS011;45528;52.102;5.242;2023-04-24T11:20:16;4.1;;;0.9;;
32451;SDS011;45528;52.102;5.242;2023-04-24T11:23:35;4.5;;;1.0;;
32451;SDS011;45528;52.102;5.242;2023-04-24T11:25:11;8.2;;;1.2;;
32451;SDS011;45528;52.102;5.242;2023-04-24T11:26:47;10.6;;;1.4;;
32451;SDS011;45528;52.102;5.242;2023-04-24T11:30:00;8.2;;;1.4;;
32451;SDS011;45528;52.102;5.242;2023-04-24T11:31:38;7.2;;;1.3;;
32451;SDS011;45528;52.102;5.242;2023-04-24T11:33:16;8.1;;;1.3;;
32451;SDS011;45528;52.102;5.242;2023-04-24T11:34:57;5.11;;;1.11;;
32451;SDS011;45528;52.102;5.242;2023-04-24T11:38:11;4.41;;;1.11;;
32451;SDS011;45528;52.102;5.242;2023-04-24T11:39:50;2.9;;;0.8;;
32451;SDS011;45528;52.102;5.242;2023-04-24T11:41:29;4.61;;;1.11;;
32451;SDS011;45528;52.102;5.242;2023-04-24T11:43:05;4.8;;;0.8;;
32451;SDS011;45528;52.102;5.242;2023-04-24T11:46:20;2.1;;;0.6;;
32451;SDS011;45528;52.102;5.242;2023-04-24T11:47:56;2.1;;;0.6;;
32451;SDS011;45528;52.102;5.242;2023-04-24T11:49:33;4.8;;;0.6;;
32451;SDS011;45528;52.102;5.242;2023-04-24T11:52:49;2.8;;;0.7;;
32451;SDS011;45528;52.102;5.242;2023-04-24T11:54:25;2.6;;;0.6;;
32451;SDS011;45528;52.102;5.242;2023-04-24T11:56:02;4.1;;;0.8;;
32451;SDS011;45528;52.102;5.242;2023-04-24T11:59:17;4.3;;;0.8;;
32451;SDS011;45528;52.102;5.242;2023-04-24T12:00:55;3.3;;;0.7;;
32451;SDS011;45528;52.102;5.242;2023-04-24T12:02:32;5.4;;;0.9;;
32451;SDS011;45528;52.102;5.242;2023-04-24T12:04:08;4.41;;;0.8;;
32451;SDS011;45528;52.102;5.242;2023-04-24T12:07:21;5.5;;;0.9;;
32451;SDS011;45528;52.102;5.242;2023-04-24T12:08:59;6.7;;;1.0;;
32451;SDS011;45528;52.102;5.242;2023-04-24T12:10:35;4.8;;;0.9;;
32451;SDS011;45528;52.102;5.242;2023-04-24T12:13:48;5.0;;;0.9;;
32451;SDS011;45528;52.102;5.242;2023-04-24T12:15:24;7.4;;;1.2;;
32451;SDS011;45528;52.102;5.242;2023-04-24T12:17:01;5.9;;;1.11;;
32451;SDS011;45528;52.102;5.242;2023-04-24T12:18:42;6.0;;;1.0;;
32451;SDS011;45528;52.102;5.242;2023-04-24T12:22:01;4.5;;;1.0;;
32451;SDS011;45528;52.102;5.242;2023-04-24T12:23:42;6.6;;;1.11;;
32451;SDS011;45528;52.102;5.242;2023-04-24T12:25:18;7.1;;;1.11;;
32451;SDS011;45528;52.102;5.242;2023-04-24T12:28:34;4.8;;;1.11;;
32451;SDS011;45528;52.102;5.242;2023-04-24T12:30:14;9.31;;;1.6;;
32451;SDS011;45528;52.102;5.242;2023-04-24T12:31:51;9.71;;;1.4;;
32451;SDS011;45528;52.102;5.242;2023-04-24T12:33:27;6.6;;;1.2;;
32451;SDS011;45528;52.102;5.242;2023-04-24T12:36:45;6.3;;;1.3;;
32451;SDS011;45528;52.102;5.242;2023-04-24T12:38:23;8.6;;;1.4;;
32451;SDS011;45528;52.102;5.242;2023-04-24T12:40:02;9.1;;;1.6;;
32451;SDS011;45528;52.102;5.242;2023-04-24T12:41:49;5.4;;;1.4;;
32451;SDS011;45528;52.102;5.242;2023-04-24T12:45:04;5.8;;;1.4;;
32451;SDS011;45528;52.102;5.242;2023-04-24T12:46:42;9.0;;;1.8;;
32451;SDS011;45528;52.102;5.242;2023-04-24T12:48:18;7.1;;;1.5;;
32451;SDS011;45528;52.102;5.242;2023-04-24T12:51:30;11.2;;;1.6;;
32451;SDS011;45528;52.102;5.242;2023-04-24T12:53:07;10.0;;;1.7;;